METAR Data
IDs: Format: Raw Decoded Include TAF

Data at: 0636 UTC 28 Sep 2022

KJCT 280551Z AUTO 29005KT 10SM CLR 15/07 A3023 RMK AO2 SLP205 T01500072 10294 20150 403170094 51011